sensor_id;sensor_type;location;lat;lon;timestamp;pressure;altitude;pressure_sealevel;temperature;humidity
19789;BME280;10054;59.332;18.244;2023-03-03T00:02:23;100895.63;;;3.93;66.92
19789;BME280;10054;59.332;18.244;2023-03-03T00:04:52;100891.36;;;3.91;67.23
19789;BME280;10054;59.332;18.244;2023-03-03T00:07:21;100891.31;;;3.92;67.21
19789;BME280;10054;59.332;18.244;2023-03-03T00:09:50;100881.73;;;3.93;67.25
19789;BME280;10054;59.332;18.244;2023-03-03T00:12:27;100891.31;;;3.92;67.21
19789;BME280;10054;59.332;18.244;2023-03-03T00:14:56;100884.44;;;3.90;67.49
19789;BME280;10054;59.332;18.244;2023-03-03T00:17:28;100887.45;;;3.91;67.95
19789;BME280;10054;59.332;18.244;2023-03-03T00:19:57;100886.28;;;3.86;67.66
19789;BME280;10054;59.332;18.244;2023-03-03T00:22:37;100879.76;;;3.86;67.62
19789;BME280;10054;59.332;18.244;2023-03-03T00:25:27;100874.13;;;3.85;67.74
19789;BME280;10054;59.332;18.244;2023-03-03T00:27:51;100876.44;;;3.81;68.18
19789;BME280;10054;59.332;18.244;2023-03-03T00:30:25;100882.64;;;3.77;68.23
19789;BME280;10054;59.332;18.244;2023-03-03T00:32:55;100878.33;;;3.76;68.34
19789;BME280;10054;59.332;18.244;2023-03-03T00:35:29;100879.27;;;3.74;68.25
19789;BME280;10054;59.332;18.244;2023-03-03T00:38:08;100873.33;;;3.70;68.32
19789;BME280;10054;59.332;18.244;2023-03-03T00:40:39;100876.84;;;3.69;68.44
19789;BME280;10054;59.332;18.244;2023-03-03T00:43:27;100877.83;;;3.65;68.42
19789;BME280;10054;59.332;18.244;2023-03-03T00:45:43;100869.28;;;3.60;68.85
19789;BME280;10054;59.332;18.244;2023-03-03T00:48:27;100872.34;;;3.59;69.11
19789;BME280;10054;59.332;18.244;2023-03-03T00:50:58;100880.17;;;3.59;68.97
19789;BME280;10054;59.332;18.244;2023-03-03T00:53:29;100872.88;;;3.56;69.19
19789;BME280;10054;59.332;18.244;2023-03-03T00:55:58;100873.83;;;3.53;69.41
19789;BME280;10054;59.332;18.244;2023-03-03T00:58:27;100871.98;;;3.57;69.56
19789;BME280;10054;59.332;18.244;2023-03-03T01:00:56;100868.97;;;3.56;69.70
19789;BME280;10054;59.332;18.244;2023-03-03T01:03:27;100869.47;;;3.54;69.81
19789;BME280;10054;59.332;18.244;2023-03-03T01:05:55;100876.44;;;3.53;70.14
19789;BME280;10054;59.332;18.244;2023-03-03T01:08:25;100877.70;;;3.55;70.43
19789;BME280;10054;59.332;18.244;2023-03-03T01:11:10;100872.48;;;3.55;69.97
19789;BME280;10054;59.332;18.244;2023-03-03T01:13:35;100867.27;;;3.55;70.28
19789;BME280;10054;59.332;18.244;2023-03-03T01:16:05;100861.59;;;3.55;70.48
19789;BME280;10054;59.332;18.244;2023-03-03T01:18:34;100863.80;;;3.54;69.91
19789;BME280;10054;59.332;18.244;2023-03-03T01:21:04;100859.03;;;3.54;70.58
19789;BME280;10054;59.332;18.244;2023-03-03T01:23:33;100870.72;;;3.55;70.63
19789;BME280;10054;59.332;18.244;2023-03-03T01:26:05;100870.72;;;3.55;70.33
19789;BME280;10054;59.332;18.244;2023-03-03T01:28:34;100864.25;;;3.54;70.04
19789;BME280;10054;59.332;18.244;2023-03-03T01:31:05;100861.28;;;3.51;70.62
19789;BME280;10054;59.332;18.244;2023-03-03T01:33:34;100863.08;;;3.49;70.48
19789;BME280;10054;59.332;18.244;2023-03-03T01:36:04;100857.95;;;3.46;70.37
19789;BME280;10054;59.332;18.244;2023-03-03T01:38:35;100858.00;;;3.45;70.67
19789;BME280;10054;59.332;18.244;2023-03-03T01:41:04;100861.46;;;3.45;70.15
19789;BME280;10054;59.332;18.244;2023-03-03T01:43:33;100861.14;;;3.41;70.43
19789;BME280;10054;59.332;18.244;2023-03-03T01:48:39;100855.98;;;3.40;70.70
19789;BME280;10054;59.332;18.244;2023-03-03T01:54:08;100849.99;;;3.36;70.23
19789;BME280;10054;59.332;18.244;2023-03-03T01:56:31;100846.63;;;3.33;70.28
19789;BME280;10054;59.332;18.244;2023-03-03T01:59:06;100841.50;;;3.29;70.34
19789;BME280;10054;59.332;18.244;2023-03-03T02:01:35;100842.89;;;3.26;70.28
19789;BME280;10054;59.332;18.244;2023-03-03T02:04:03;100834.34;;;3.21;70.42
19789;BME280;10054;59.332;18.244;2023-03-03T02:06:37;100842.20;;;3.20;70.47
19789;BME280;10054;59.332;18.244;2023-03-03T02:09:14;100841.27;;;3.22;70.59
19789;BME280;10054;59.332;18.244;2023-03-03T02:11:43;100836.05;;;3.22;70.38
19789;BME280;10054;59.332;18.244;2023-03-03T02:14:12;100838.70;;;3.21;70.67
19789;BME280;10054;59.332;18.244;2023-03-03T02:16:43;100852.55;;;3.23;71.05
19789;BME280;10054;59.332;18.244;2023-03-03T02:19:20;100852.50;;;3.24;70.76
19789;BME280;10054;59.332;18.244;2023-03-03T02:21:47;100850.75;;;3.25;70.45
19789;BME280;10054;59.332;18.244;2023-03-03T02:24:26;100846.84;;;3.25;70.27
19789;BME280;10054;59.332;18.244;2023-03-03T02:26:57;100840.23;;;3.28;70.82
19789;BME280;10054;59.332;18.244;2023-03-03T02:29:27;100841.00;;;3.32;70.28
19789;BME280;10054;59.332;18.244;2023-03-03T02:31:57;100839.70;;;3.32;69.97
19789;BME280;10054;59.332;18.244;2023-03-03T02:34:26;100835.78;;;3.32;70.14
19789;BME280;10054;59.332;18.244;2023-03-03T02:36:55;100830.08;;;3.34;70.33
19789;BME280;10054;59.332;18.244;2023-03-03T02:39:25;100837.90;;;3.34;70.02
19789;BME280;10054;59.332;18.244;2023-03-03T02:44:35;100850.94;;;3.34;70.24
19789;BME280;10054;59.332;18.244;2023-03-03T02:47:04;100846.63;;;3.33;70.01
19789;BME280;10054;59.332;18.244;2023-03-03T02:49:34;100851.02;;;3.30;70.18
19789;BME280;10054;59.332;18.244;2023-03-03T02:52:06;100845.41;;;3.29;70.30
19789;BME280;10054;59.332;18.244;2023-03-03T02:54:38;100850.13;;;3.32;70.24
19789;BME280;10054;59.332;18.244;2023-03-03T02:57:07;100851.07;;;3.29;70.21
19789;BME280;10054;59.332;18.244;2023-03-03T02:59:36;100849.31;;;3.29;70.18
19789;BME280;10054;59.332;18.244;2023-03-03T03:02:06;100851.02;;;3.30;70.22
19789;BME280;10054;59.332;18.244;2023-03-03T03:04:35;100849.81;;;3.27;70.10
19789;BME280;10054;59.332;18.244;2023-03-03T03:07:04;100846.80;;;3.26;70.26
19789;BME280;10054;59.332;18.244;2023-03-03T03:09:34;100845.45;;;3.28;70.46
19789;BME280;10054;59.332;18.244;2023-03-03T03:12:04;100850.75;;;3.25;70.29
19789;BME280;10054;59.332;18.244;2023-03-03T03:14:34;100849.58;;;3.20;70.40
19789;BME280;10054;59.332;18.244;2023-03-03T03:17:04;100849.12;;;3.21;70.69
19789;BME280;10054;59.332;18.244;2023-03-03T03:19:33;100853.45;;;3.22;70.80
19789;BME280;10054;59.332;18.244;2023-03-03T03:22:03;100843.52;;;3.20;70.61
19789;BME280;10054;59.332;18.244;2023-03-03T03:24:33;100844.01;;;3.18;70.52
19789;BME280;10054;59.332;18.244;2023-03-03T03:27:04;100837.89;;;3.19;70.80
19789;BME280;10054;59.332;18.244;2023-03-03T03:29:32;100835.28;;;3.19;70.85
19789;BME280;10054;59.332;18.244;2023-03-03T03:32:01;100828.81;;;3.17;70.97
19789;BME280;10054;59.332;18.244;2023-03-03T03:34:30;100826.30;;;3.14;70.77
19789;BME280;10054;59.332;18.244;2023-03-03T03:36:59;100827.19;;;3.13;71.10
19789;BME280;10054;59.332;18.244;2023-03-03T03:39:29;100830.20;;;3.14;71.06
19789;BME280;10054;59.332;18.244;2023-03-03T03:41:58;100834.61;;;3.12;71.17
19789;BME280;10054;59.332;18.244;2023-03-03T03:44:26;100822.56;;;3.08;71.36
19789;BME280;10054;59.332;18.244;2023-03-03T03:46:55;100820.84;;;3.07;71.73
19789;BME280;10054;59.332;18.244;2023-03-03T03:49:24;100822.64;;;3.05;71.69
19789;BME280;10054;59.332;18.244;2023-03-03T03:51:55;100820.17;;;3.01;71.67
19789;BME280;10054;59.332;18.244;2023-03-03T03:54:25;100831.98;;;2.97;72.33
19789;BME280;10054;59.332;18.244;2023-03-03T03:56:54;100822.48;;;2.96;72.44
19789;BME280;10054;59.332;18.244;2023-03-03T03:59:23;100823.79;;;2.96;72.06
19789;BME280;10054;59.332;18.244;2023-03-03T04:01:52;100827.95;;;2.87;72.35
19789;BME280;10054;59.332;18.244;2023-03-03T04:04:21;100824.58;;;2.84;72.11
19789;BME280;10054;59.332;18.244;2023-03-03T04:06:50;100831.09;;;2.84;72.21
19789;BME280;10054;59.332;18.244;2023-03-03T04:09:19;100828.57;;;2.81;71.97
19789;BME280;10054;59.332;18.244;2023-03-03T04:11:48;100835.20;;;2.76;72.12
19789;BME280;10054;59.332;18.244;2023-03-03T04:14:17;100827.92;;;2.73;72.58
19789;BME280;10054;59.332;18.244;2023-03-03T04:16:46;100830.61;;;2.70;72.51
19789;BME280;10054;59.332;18.244;2023-03-03T04:19:16;100823.32;;;2.66;72.41
19789;BME280;10054;59.332;18.244;2023-03-03T04:21:45;100816.56;;;2.59;72.75
19789;BME280;10054;59.332;18.244;2023-03-03T04:24:14;100816.61;;;2.57;73.11
19789;BME280;10054;59.332;18.244;2023-03-03T04:26:43;100817.83;;;2.60;73.04
19789;BME280;10054;59.332;18.244;2023-03-03T04:29:12;100817.46;;;2.58;72.75
19789;BME280;10054;59.332;18.244;2023-03-03T04:31:42;100814.45;;;2.57;72.83
19789;BME280;10054;59.332;18.244;2023-03-03T04:34:12;100816.65;;;2.56;73.13
19789;BME280;10054;59.332;18.244;2023-03-03T04:36:41;100821.41;;;2.56;72.76
19789;BME280;10054;59.332;18.244;2023-03-03T04:39:09;100812.78;;;2.54;72.66
19789;BME280;10054;59.332;18.244;2023-03-03T04:41:38;100812.45;;;2.50;72.85
19789;BME280;10054;59.332;18.244;2023-03-03T04:44:07;100820.27;;;2.50;72.94
19789;BME280;10054;59.332;18.244;2023-03-03T04:46:36;100811.56;;;2.51;72.89
19789;BME280;10054;59.332;18.244;2023-03-03T04:49:05;100814.61;;;2.51;72.64
19789;BME280;10054;59.332;18.244;2023-03-03T04:51:35;100813.35;;;2.49;72.72
19789;BME280;10054;59.332;18.244;2023-03-03T04:54:05;100807.73;;;2.48;72.49
19789;BME280;10054;59.332;18.244;2023-03-03T04:56:34;100807.66;;;2.51;72.46
19789;BME280;10054;59.332;18.244;2023-03-03T04:59:02;100809.85;;;2.50;72.66
19789;BME280;10054;59.332;18.244;2023-03-03T05:01:32;100807.33;;;2.47;72.45
19789;BME280;10054;59.332;18.244;2023-03-03T05:04:01;100807.37;;;2.46;72.62
19789;BME280;10054;59.332;18.244;2023-03-03T05:06:29;100805.21;;;2.45;72.79
19789;BME280;10054;59.332;18.244;2023-03-03T05:08:58;100803.09;;;2.43;72.80
19789;BME280;10054;59.332;18.244;2023-03-03T05:11:27;100797.59;;;2.38;72.45
19789;BME280;10054;59.332;18.244;2023-03-03T05:13:55;100785.59;;;2.32;72.78
19789;BME280;10054;59.332;18.244;2023-03-03T05:16:24;100786.05;;;2.31;72.86
19789;BME280;10054;59.332;18.244;2023-03-03T05:18:53;100781.73;;;2.30;73.14
19789;BME280;10054;59.332;18.244;2023-03-03T05:21:22;100784.90;;;2.25;72.95
19789;BME280;10054;59.332;18.244;2023-03-03T05:23:50;100788.55;;;2.20;73.49
19789;BME280;10054;59.332;18.244;2023-03-03T05:26:19;100782.45;;;2.21;73.48
19789;BME280;10054;59.332;18.244;2023-03-03T05:28:48;100781.22;;;2.18;73.21
19789;BME280;10054;59.332;18.244;2023-03-03T05:31:17;100779.67;;;2.11;73.72
19789;BME280;10054;59.332;18.244;2023-03-03T05:33:46;100782.75;;;2.09;73.93
19789;BME280;10054;59.332;18.244;2023-03-03T05:36:15;100772.83;;;2.07;73.73
19789;BME280;10054;59.332;18.244;2023-03-03T05:38:44;100776.73;;;2.07;73.82
19789;BME280;10054;59.332;18.244;2023-03-03T05:41:13;100770.72;;;2.05;74.03
19789;BME280;10054;59.332;18.244;2023-03-03T05:43:41;100766.41;;;2.04;74.43
19789;BME280;10054;59.332;18.244;2023-03-03T05:46:11;100760.72;;;2.06;74.50
19789;BME280;10054;59.332;18.244;2023-03-03T05:48:40;100766.33;;;2.07;74.48
19789;BME280;10054;59.332;18.244;2023-03-03T05:51:09;100769.45;;;2.03;74.35
19789;BME280;10054;59.332;18.244;2023-03-03T05:53:38;100769.53;;;2.00;74.49
19789;BME280;10054;59.332;18.244;2023-03-03T05:56:07;100772.09;;;2.02;75.23
19789;BME280;10054;59.332;18.244;2023-03-03T05:58:36;100785.51;;;2.03;74.92
19789;BME280;10054;59.332;18.244;2023-03-03T06:01:05;100782.98;;;2.00;74.68
19789;BME280;10054;59.332;18.244;2023-03-03T06:03:34;100776.07;;;1.98;75.39
19789;BME280;10054;59.332;18.244;2023-03-03T06:06:03;100778.59;;;2.02;75.48
19789;BME280;10054;59.332;18.244;2023-03-03T06:08:32;100776.81;;;2.04;75.58
19789;BME280;10054;59.332;18.244;2023-03-03T06:11:01;100776.41;;;2.03;75.41
19789;BME280;10054;59.332;18.244;2023-03-03T06:13:30;100775.55;;;2.02;75.20
19789;BME280;10054;59.332;18.244;2023-03-03T06:15:59;100766.81;;;2.05;75.80
19789;BME280;10054;59.332;18.244;2023-03-03T06:18:27;100771.57;;;2.05;75.35
19789;BME280;10054;59.332;18.244;2023-03-03T06:20:56;100774.66;;;2.03;75.29
19789;BME280;10054;59.332;18.244;2023-03-03T06:23:24;100771.23;;;2.01;75.67
19789;BME280;10054;59.332;18.244;2023-03-03T06:25:53;100777.30;;;2.02;75.81
19789;BME280;10054;59.332;18.244;2023-03-03T06:28:22;100771.23;;;2.01;76.01
19789;BME280;10054;59.332;18.244;2023-03-03T06:30:55;100765.66;;;1.98;75.92
19789;BME280;10054;59.332;18.244;2023-03-03T06:33:24;100763.10;;;1.97;76.29
19789;BME280;10054;59.332;18.244;2023-03-03T06:35:54;100753.52;;;1.99;76.47
19789;BME280;10054;59.332;18.244;2023-03-03T06:38:22;100748.67;;;2.02;76.33
19789;BME280;10054;59.332;18.244;2023-03-03T06:40:52;100751.77;;;2.00;76.51
19789;BME280;10054;59.332;18.244;2023-03-03T06:43:21;100756.97;;;2.00;76.38
19789;BME280;10054;59.332;18.244;2023-03-03T06:45:50;100751.23;;;2.03;76.68
19789;BME280;10054;59.332;18.244;2023-03-03T06:48:18;100753.28;;;2.08;76.66
19789;BME280;10054;59.332;18.244;2023-03-03T06:50:47;100754.09;;;2.10;76.56
19789;BME280;10054;59.332;18.244;2023-03-03T06:53:17;100755.72;;;2.14;76.60
19789;BME280;10054;59.332;18.244;2023-03-03T06:55:46;100757.16;;;2.24;76.72
19789;BME280;10054;59.332;18.244;2023-03-03T06:58:17;100747.81;;;2.34;76.37
19789;BME280;10054;59.332;18.244;2023-03-03T07:00:56;100740.37;;;2.36;76.09
19789;BME280;10054;59.332;18.244;2023-03-03T07:03:28;100740.61;;;2.43;76.21
19789;BME280;10054;59.332;18.244;2023-03-03T07:05:57;100743.73;;;2.56;76.40
19789;BME280;10054;59.332;18.244;2023-03-03T07:08:29;100739.66;;;2.62;74.89
19789;BME280;10054;59.332;18.244;2023-03-03T07:11:00;100742.95;;;2.69;74.69
19789;BME280;10054;59.332;18.244;2023-03-03T07:13:30;100745.78;;;2.76;74.64
19789;BME280;10054;59.332;18.244;2023-03-03T07:16:02;100749.47;;;2.83;74.22
19789;BME280;10054;59.332;18.244;2023-03-03T07:21:33;100741.80;;;2.93;73.59
19789;BME280;10054;59.332;18.244;2023-03-03T07:24:26;100746.60;;;2.92;73.34
19789;BME280;10054;59.332;18.244;2023-03-03T07:27:05;100734.79;;;2.95;73.22
19789;BME280;10054;59.332;18.244;2023-03-03T07:29:28;100732.46;;;3.00;73.36
19789;BME280;10054;59.332;18.244;2023-03-03T07:31:58;100721.41;;;3.06;73.27
19789;BME280;10054;59.332;18.244;2023-03-03T07:34:48;100724.59;;;3.16;72.43
19789;BME280;10054;59.332;18.244;2023-03-03T07:37:32;100727.67;;;3.28;72.58
19789;BME280;10054;59.332;18.244;2023-03-03T07:39:59;100717.91;;;3.35;71.87
19789;BME280;10054;59.332;18.244;2023-03-03T07:42:39;100715.92;;;3.43;72.29
19789;BME280;10054;59.332;18.244;2023-03-03T07:45:38;100710.45;;;3.51;71.88
19789;BME280;10054;59.332;18.244;2023-03-03T07:48:18;100702.44;;;3.57;70.77
19789;BME280;10054;59.332;18.244;2023-03-03T07:50:46;100691.35;;;3.63;71.13
19789;BME280;10054;59.332;18.244;2023-03-03T07:53:27;100691.60;;;3.69;70.31
19789;BME280;10054;59.332;18.244;2023-03-03T07:55:56;100683.38;;;3.68;69.67
19789;BME280;10054;59.332;18.244;2023-03-03T07:58:36;100679.73;;;3.72;69.95
19789;BME280;10054;59.332;18.244;2023-03-03T08:01:28;100670.95;;;3.75;70.33
19789;BME280;10054;59.332;18.244;2023-03-03T08:03:53;100664.67;;;3.80;69.74
19789;BME280;10054;59.332;18.244;2023-03-03T08:06:55;100662.25;;;3.87;70.10
19789;BME280;10054;59.332;18.244;2023-03-03T08:12:41;100653.84;;;4.04;70.05
19789;BME280;10054;59.332;18.244;2023-03-03T08:15:30;100652.27;;;4.12;69.58
19789;BME280;10054;59.332;18.244;2023-03-03T08:18:00;100644.11;;;4.21;69.34
19789;BME280;10054;59.332;18.244;2023-03-03T08:20:47;100635.32;;;4.35;69.91
19789;BME280;10054;59.332;18.244;2023-03-03T08:23:17;100640.12;;;4.46;68.75
19789;BME280;10054;59.332;18.244;2023-03-03T08:25:48;100631.88;;;4.56;68.84
19789;BME280;10054;59.332;18.244;2023-03-03T08:28:18;100630.74;;;4.63;67.73
19789;BME280;10054;59.332;18.244;2023-03-03T08:30:48;100618.36;;;4.69;66.98
19789;BME280;10054;59.332;18.244;2023-03-03T08:33:17;100614.77;;;4.71;67.60
19789;BME280;10054;59.332;18.244;2023-03-03T08:35:47;100611.47;;;4.78;68.08
19789;BME280;10054;59.332;18.244;2023-03-03T08:38:18;100610.56;;;4.79;67.37
19789;BME280;10054;59.332;18.244;2023-03-03T08:40:48;100609.43;;;4.74;67.36
19789;BME280;10054;59.332;18.244;2023-03-03T08:43:17;100614.66;;;4.74;67.81
19789;BME280;10054;59.332;18.244;2023-03-03T08:45:48;100612.44;;;4.75;66.94
19789;BME280;10054;59.332;18.244;2023-03-03T08:51:17;100607.16;;;4.77;68.37
19789;BME280;10054;59.332;18.244;2023-03-03T08:54:00;100604.55;;;4.77;67.04
19789;BME280;10054;59.332;18.244;2023-03-03T08:56:29;100607.27;;;4.74;67.76
19789;BME280;10054;59.332;18.244;2023-03-03T08:58:57;100605.05;;;4.75;67.70
19789;BME280;10054;59.332;18.244;2023-03-03T09:01:26;100603.63;;;4.78;67.47
19789;BME280;10054;59.332;18.244;2023-03-03T09:03:55;100600.16;;;4.77;67.67
19789;BME280;10054;59.332;18.244;2023-03-03T09:06:23;100596.13;;;4.80;67.83
19789;BME280;10054;59.332;18.244;2023-03-03T09:08:53;100582.42;;;4.85;67.26
19789;BME280;10054;59.332;18.244;2023-03-03T09:11:26;100594.52;;;4.88;67.60
19789;BME280;10054;59.332;18.244;2023-03-03T09:14:13;100589.90;;;4.94;67.23
19789;BME280;10054;59.332;18.244;2023-03-03T09:16:53;100583.97;;;5.01;67.23
19789;BME280;10054;59.332;18.244;2023-03-03T09:19:30;100573.91;;;5.02;66.33
19789;BME280;10054;59.332;18.244;2023-03-03T09:22:02;100566.34;;;5.06;66.19
19789;BME280;10054;59.332;18.244;2023-03-03T09:24:34;100563.92;;;5.12;66.45
19789;BME280;10054;59.332;18.244;2023-03-03T09:27:10;100563.02;;;5.13;66.16
19789;BME280;10054;59.332;18.244;2023-03-03T09:29:38;100545.04;;;5.15;66.08
19789;BME280;10054;59.332;18.244;2023-03-03T09:34:58;100538.05;;;5.16;66.24
19789;BME280;10054;59.332;18.244;2023-03-03T09:37:31;100523.08;;;5.19;66.89
19789;BME280;10054;59.332;18.244;2023-03-03T09:39:59;100519.91;;;5.21;66.29
19789;BME280;10054;59.332;18.244;2023-03-03T09:42:41;100523.93;;;5.20;66.31
19789;BME280;10054;59.332;18.244;2023-03-03T09:54:02;100485.45;;;5.22;66.71
19789;BME280;10054;59.332;18.244;2023-03-03T09:56:34;100477.94;;;5.24;66.54
19789;BME280;10054;59.332;18.244;2023-03-03T10:04:43;100450.08;;;5.34;66.50
19789;BME280;10054;59.332;18.244;2023-03-03T10:10:33;100437.33;;;5.36;66.31
19789;BME280;10054;59.332;18.244;2023-03-03T10:18:28;100436.20;;;5.42;66.06
19789;BME280;10054;59.332;18.244;2023-03-03T10:21:18;100430.98;;;5.42;65.64
19789;BME280;10054;59.332;18.244;2023-03-03T10:23:58;100427.51;;;5.41;65.69
19789;BME280;10054;59.332;18.244;2023-03-03T10:29:08;100429.27;;;5.41;65.62
19789;BME280;10054;59.332;18.244;2023-03-03T10:37:20;100425.74;;;5.42;66.92
19789;BME280;10054;59.332;18.244;2023-03-03T10:39:58;100417.44;;;5.42;67.46
19789;BME280;10054;59.332;18.244;2023-03-03T10:42:37;100413.72;;;5.38;67.44
19789;BME280;10054;59.332;18.244;2023-03-03T10:48:42;100412.22;;;5.32;69.22
19789;BME280;10054;59.332;18.244;2023-03-03T10:53:20;100412.16;;;5.23;70.06
19789;BME280;10054;59.332;18.244;2023-03-03T10:56:07;100401.18;;;5.25;70.83
19789;BME280;10054;59.332;18.244;2023-03-03T11:06:41;100388.55;;;4.96;80.14
19789;BME280;10054;59.332;18.244;2023-03-03T11:09:27;100383.27;;;4.87;83.36
19789;BME280;10054;59.332;18.244;2023-03-03T11:17:27;100363.06;;;4.60;90.55
19789;BME280;10054;59.332;18.244;2023-03-03T11:20:19;100349.08;;;4.51;94.04
19789;BME280;10054;59.332;18.244;2023-03-03T11:22:52;100327.36;;;4.41;94.82
19789;BME280;10054;59.332;18.244;2023-03-03T11:28:22;100308.36;;;4.37;98.24
19789;BME280;10054;59.332;18.244;2023-03-03T11:33:28;100293.34;;;4.32;99.48
19789;BME280;10054;59.332;18.244;2023-03-03T11:36:29;100295.63;;;4.29;100.00
19789;BME280;10054;59.332;18.244;2023-03-03T11:38:59;100285.05;;;4.22;100.00
19789;BME280;10054;59.332;18.244;2023-03-03T11:41:38;100282.69;;;4.16;100.00
19789;BME280;10054;59.332;18.244;2023-03-03T11:44:22;100280.92;;;4.17;100.00
19789;BME280;10054;59.332;18.244;2023-03-03T11:46:57;100277.98;;;4.14;100.00
19789;BME280;10054;59.332;18.244;2023-03-03T11:52:11;100260.48;;;4.06;100.00
19789;BME280;10054;59.332;18.244;2023-03-03T11:57:40;100252.14;;;4.08;100.00
19789;BME280;10054;59.332;18.244;2023-03-03T12:00:27;100243.52;;;4.06;100.00
19789;BME280;10054;59.332;18.244;2023-03-03T12:03:01;100238.30;;;4.06;100.00
19789;BME280;10054;59.332;18.244;2023-03-03T12:14:27;100188.10;;;3.79;100.00
19789;BME280;10054;59.332;18.244;2023-03-03T12:16:57;100180.98;;;3.73;100.00
19789;BME280;10054;59.332;18.244;2023-03-03T12:19:33;100166.47;;;3.67;100.00
19789;BME280;10054;59.332;18.244;2023-03-03T12:25:18;100134.12;;;3.61;100.00
19789;BME280;10054;59.332;18.244;2023-03-03T12:27:53;100128.58;;;3.58;100.00
19789;BME280;10054;59.332;18.244;2023-03-03T12:33:22;100078.05;;;3.61;100.00
19789;BME280;10054;59.332;18.244;2023-03-03T12:41:21;100067.55;;;3.52;100.00
19789;BME280;10054;59.332;18.244;2023-03-03T12:43:55;100066.63;;;3.53;100.00
19789;BME280;10054;59.332;18.244;2023-03-03T12:46:58;100052.88;;;3.60;100.00
19789;BME280;10054;59.332;18.244;2023-03-03T12:49:53;100052.70;;;3.73;100.00
19789;BME280;10054;59.332;18.244;2023-03-03T12:52:08;100033.77;;;3.88;100.00
19789;BME280;10054;59.332;18.244;2023-03-03T12:54:38;100022.61;;;3.95;100.00
19789;BME280;10054;59.332;18.244;2023-03-03T12:57:33;100030.09;;;4.03;100.00
19789;BME280;10054;59.332;18.244;2023-03-03T12:59:51;100013.77;;;4.08;100.00
19789;BME280;10054;59.332;18.244;2023-03-03T13:02:38;100014.47;;;4.11;100.00
19789;BME280;10054;59.332;18.244;2023-03-03T13:05:43;100004.03;;;4.11;100.00
19789;BME280;10054;59.332;18.244;2023-03-03T13:08:37;99996.45;;;4.15;100.00
19789;BME280;10054;59.332;18.244;2023-03-03T13:16:38;99970.02;;;4.32;96.65
19789;BME280;10054;59.332;18.244;2023-03-03T13:19:11;99966.03;;;4.33;95.97
19789;BME280;10054;59.332;18.244;2023-03-03T13:21:45;99960.20;;;4.37;95.40
19789;BME280;10054;59.332;18.244;2023-03-03T13:24:32;99943.55;;;4.39;93.81
19789;BME280;10054;59.332;18.244;2023-03-03T13:27:07;99940.02;;;4.40;92.94
19789;BME280;10054;59.332;18.244;2023-03-03T13:29:42;99928.19;;;4.42;90.57
19789;BME280;10054;59.332;18.244;2023-03-03T13:32:19;99920.20;;;4.45;90.42
19789;BME280;10054;59.332;18.244;2023-03-03T13:37:52;99903.59;;;4.54;87.06
19789;BME280;10054;59.332;18.244;2023-03-03T13:40:30;99892.08;;;4.58;85.06
19789;BME280;10054;59.332;18.244;2023-03-03T13:43:03;99879.70;;;4.62;84.35
19789;BME280;10054;59.332;18.244;2023-03-03T13:46:07;99881.63;;;4.67;83.20
19789;BME280;10054;59.332;18.244;2023-03-03T13:49:02;99877.71;;;4.67;80.71
19789;BME280;10054;59.332;18.244;2023-03-03T13:51:41;99855.35;;;4.70;79.71
19789;BME280;10054;59.332;18.244;2023-03-03T13:54:49;99858.73;;;4.72;78.37
19789;BME280;10054;59.332;18.244;2023-03-03T14:00:06;99823.16;;;4.70;75.70
19789;BME280;10054;59.332;18.244;2023-03-03T14:13:48;99794.91;;;4.93;74.10
19789;BME280;10054;59.332;18.244;2023-03-03T14:19:16;99781.91;;;5.01;72.15
19789;BME280;10054;59.332;18.244;2023-03-03T14:22:11;99779.13;;;5.04;71.84
19789;BME280;10054;59.332;18.244;2023-03-03T14:24:32;99762.44;;;5.06;70.18
19789;BME280;10054;59.332;18.244;2023-03-03T14:27:05;99777.03;;;5.10;70.47
19789;BME280;10054;59.332;18.244;2023-03-03T14:29:35;99779.86;;;5.14;69.57
19789;BME280;10054;59.332;18.244;2023-03-03T14:32:27;99776.62;;;5.18;69.54
19789;BME280;10054;59.332;18.244;2023-03-03T14:34:38;99769.24;;;5.17;69.61
19789;BME280;10054;59.332;18.244;2023-03-03T14:37:28;99761.78;;;5.18;68.93
19789;BME280;10054;59.332;18.244;2023-03-03T14:40:16;99758.59;;;5.20;67.23
19789;BME280;10054;59.332;18.244;2023-03-03T14:45:39;99733.41;;;5.26;67.44
19789;BME280;10054;59.332;18.244;2023-03-03T14:48:16;99730.71;;;5.28;67.26
19789;BME280;10054;59.332;18.244;2023-03-03T14:51:24;99739.41;;;5.28;67.43
19789;BME280;10054;59.332;18.244;2023-03-03T14:53:56;99736.33;;;5.29;66.77
19789;BME280;10054;59.332;18.244;2023-03-03T14:56:29;99730.25;;;5.28;66.89
19789;BME280;10054;59.332;18.244;2023-03-03T14:59:19;99739.11;;;5.26;66.42
19789;BME280;10054;59.332;18.244;2023-03-03T15:02:02;99741.26;;;5.26;67.69
19789;BME280;10054;59.332;18.244;2023-03-03T15:04:27;99736.48;;;5.26;66.70
19789;BME280;10054;59.332;18.244;2023-03-03T15:06:57;99732.73;;;5.23;66.73
19789;BME280;10054;59.332;18.244;2023-03-03T15:09:37;99723.58;;;5.23;66.61
19789;BME280;10054;59.332;18.244;2023-03-03T15:12:25;99719.02;;;5.19;65.98
19789;BME280;10054;59.332;18.244;2023-03-03T15:17:42;99725.64;;;5.18;66.25
19789;BME280;10054;59.332;18.244;2023-03-03T15:23:13;99719.52;;;5.10;67.86
19789;BME280;10054;59.332;18.244;2023-03-03T15:25:52;99718.46;;;5.06;67.10
19789;BME280;10054;59.332;18.244;2023-03-03T15:28:26;99720.02;;;5.01;67.40
19789;BME280;10054;59.332;18.244;2023-03-03T15:34:00;99732.41;;;4.98;66.82
19789;BME280;10054;59.332;18.244;2023-03-03T15:36:38;99729.49;;;4.95;66.59
19789;BME280;10054;59.332;18.244;2023-03-03T15:42:23;99718.28;;;4.93;66.46
19789;BME280;10054;59.332;18.244;2023-03-03T15:52:51;99709.84;;;4.88;67.85